EGXW/WTN METAR and TAF weather

Enter ICAO airport designator
Station Type Date Time Source
EGXW METAR 2024/02/26 17:20 UTC NOAA

EGXW 261720Z 02012KT 9999 FEW020 SCT028 06/03 Q1018 TEMPO SCT020 RMK BLU TEMPO WHT


Station Type Date Time Source
EGXW Decoded METAR 2024/02/26 17:20 UTC NOAA

Waddington, United Kingdom (EGXW) 53-10N 000-31W 0M
Feb 26, 2024 - 12:20 PM EST / 2024.02.26 1720 UTC
Wind: from the NNE (020 degrees) at 14 MPH (12 KT):0
Visibility: greater than 7 mile(s):0
Sky conditions: partly cloudy
Temperature: 42 F (6 C)
Dew Point: 37 F (3 C)
Relative Humidity: 81%
Pressure (altimeter): 30.06 in. Hg (1018 hPa)
ob: EGXW 261720Z 02012KT 9999 FEW020 SCT028 06/03 Q1018 TEMPO SCT020 RMK BLU TEMPO WHT
cycle: 17

Station Type Date Time Source
EGXW TAF 2024/02/26 18:57 UTC NOAA